createdAt,value
2016-04-21T11:36:56.793Z,960.95
2016-04-21T11:37:56.341Z,960.97
2016-04-21T11:38:57.516Z,960.95
2016-04-21T11:39:56.347Z,960.93
2016-04-21T11:40:56.366Z,960.91
2016-04-21T11:41:57.275Z,960.94
2016-04-21T11:42:57.199Z,960.96
2016-04-21T11:43:56.358Z,960.94
2016-04-21T11:44:57.158Z,960.97
2016-04-21T11:45:57.146Z,960.94
2016-04-21T11:46:56.335Z,960.9
2016-04-21T11:47:57.228Z,960.87
2016-04-21T11:48:57.293Z,960.83
2016-04-21T11:49:57.187Z,960.83
2016-04-21T11:50:57.112Z,960.83
2016-04-21T11:51:57.287Z,960.78
2016-04-21T11:52:57.507Z,960.81
2016-04-21T11:53:57.213Z,960.79
2016-04-21T11:54:56.294Z,960.79
2016-04-21T11:55:57.094Z,960.82
2016-04-21T11:56:57.128Z,960.79
2016-04-21T11:57:56.271Z,960.79
2016-04-21T11:58:57.180Z,960.79
2016-04-21T11:59:57.105Z,960.76
2016-04-21T12:00:57.294Z,960.73
2016-04-21T12:01:57.141Z,960.74
2016-04-21T12:02:57.081Z,960.76
2016-04-21T12:03:57.350Z,960.72
2016-04-21T12:04:57.072Z,960.73
2016-04-21T12:05:56.214Z,960.7
2016-04-21T12:06:57.249Z,960.67
2016-04-21T12:07:57.047Z,960.66
2016-04-21T12:08:57.035Z,960.64
2016-04-21T12:09:57.382Z,960.63
2016-04-21T12:10:56.165Z,960.62
2016-04-21T12:11:56.996Z,960.59
2016-04-21T12:12:56.202Z,960.6
2016-04-21T12:13:57.345Z,960.52
2016-04-21T12:14:56.941Z,960.55
2016-04-21T12:15:57.273Z,960.56
2016-04-21T12:16:57.182Z,960.53
2016-04-21T12:17:56.231Z,960.51
2016-04-21T12:18:56.374Z,960.52
2016-04-21T12:19:57.751Z,960.51
2016-04-21T12:20:56.161Z,960.5
2016-04-21T12:21:56.164Z,960.47
2016-04-21T12:22:57.119Z,960.41
2016-04-21T12:23:56.138Z,960.42
2016-04-21T12:24:56.422Z,960.43
2016-04-21T12:25:56.128Z,960.39
2016-04-21T12:26:56.895Z,960.41
2016-04-21T12:27:56.368Z,960.32
2016-04-21T12:28:56.136Z,960.34
2016-04-21T12:29:56.950Z,960.37
2016-04-21T12:30:56.109Z,960.3
2016-04-21T12:31:56.362Z,960.28
2016-04-21T12:32:57.069Z,960.33
2016-04-21T12:33:56.367Z,960.26
2016-04-21T12:34:57.480Z,960.26
2016-04-21T12:35:56.357Z,960.23
2016-04-21T12:36:56.719Z,960.22
2016-04-21T12:37:56.519Z,960.18
2016-04-21T12:38:56.928Z,960.22
2016-04-21T12:39:56.790Z,960.12
2016-04-21T12:40:56.777Z,960.13
2016-04-21T12:41:56.999Z,960.12
2016-04-21T12:42:57.002Z,960.1
2016-04-21T12:43:56.051Z,960.06
2016-04-21T12:44:56.022Z,960.08
2016-04-21T12:45:56.040Z,960.04
2016-04-21T12:46:57.340Z,960.04
2016-04-21T12:47:56.765Z,960.02
2016-04-21T12:48:57.251Z,960.04
2016-04-21T12:49:56.818Z,960.05
2016-04-21T12:50:56.867Z,960.08
2016-04-21T12:51:57.745Z,960.02
2016-04-21T12:52:56.904Z,960.04
2016-04-21T12:53:56.796Z,960
2016-04-21T12:54:57.284Z,960
2016-04-21T12:55:56.005Z,959.99
2016-04-21T12:56:56.961Z,959.93
2016-04-21T12:57:57.011Z,959.91
2016-04-21T12:58:56.935Z,959.94
2016-04-21T12:59:57.548Z,959.91
2016-04-21T13:00:56.972Z,959.9
2016-04-21T13:01:55.990Z,959.89
2016-04-21T13:02:57.056Z,959.89
2016-04-21T13:03:57.011Z,959.84
2016-04-21T13:04:55.950Z,959.84
2016-04-21T13:05:57.032Z,959.82
2016-04-21T13:06:55.988Z,959.84
2016-04-21T13:07:56.209Z,959.78
2016-04-21T13:08:56.680Z,959.74
2016-04-21T13:09:57.043Z,959.76
2016-04-21T13:10:56.124Z,959.74
2016-04-21T13:11:56.095Z,959.73
2016-04-21T13:12:56.754Z,959.68
2016-04-21T13:13:57.381Z,959.72
2016-04-21T13:14:56.760Z,959.68
2016-04-21T13:15:56.137Z,959.68
2016-04-21T13:16:56.874Z,959.67
2016-04-21T13:17:56.783Z,959.67
2016-04-21T13:18:56.301Z,959.67
2016-04-21T13:19:58.023Z,959.65
2016-04-21T13:20:57.119Z,959.6
2016-04-21T13:21:55.904Z,959.58
2016-04-21T13:22:55.860Z,959.54
2016-04-21T13:23:57.081Z,959.51
2016-04-21T13:24:56.629Z,959.56
2016-04-21T13:25:55.867Z,959.51
2016-04-21T13:26:56.900Z,959.48
2016-04-21T13:27:56.310Z,959.49
2016-04-21T13:28:57.640Z,959.51
2016-04-21T13:29:56.784Z,959.45
2016-04-21T13:30:56.100Z,959.47
2016-04-21T13:31:56.899Z,959.48
2016-04-21T13:32:56.730Z,959.5
2016-04-21T13:33:56.654Z,959.47
2016-04-21T13:34:56.564Z,959.49
2016-04-21T13:35:56.644Z,959.44
2016-04-21T13:36:57.272Z,959.38
2016-04-21T13:37:55.805Z,959.44
2016-04-21T13:38:56.605Z,959.38
2016-04-21T13:39:57.061Z,959.38
2016-04-21T13:40:55.798Z,959.4
2016-04-21T13:41:56.848Z,959.4
2016-04-21T13:42:57.397Z,959.39
2016-04-21T13:43:55.993Z,959.41
2016-04-21T13:44:56.607Z,959.37
2016-04-21T13:45:57.048Z,959.35
2016-04-21T13:46:56.770Z,959.32
2016-04-21T13:47:56.976Z,959.35
2016-04-21T13:48:55.963Z,959.33
2016-04-21T13:49:56.043Z,959.3
2016-04-21T13:50:56.576Z,959.29
2016-04-21T13:51:55.751Z,959.28
2016-04-21T13:52:56.879Z,959.29
2016-04-21T13:53:55.944Z,959.24
2016-04-21T13:54:55.775Z,959.26
2016-04-21T13:55:55.965Z,959.22
2016-04-21T13:56:55.750Z,959.26
2016-04-21T13:57:55.736Z,959.24
2016-04-21T13:58:56.677Z,959.23
2016-04-21T13:59:56.554Z,959.22
2016-04-21T14:00:56.558Z,959.26
2016-04-21T14:01:57.028Z,959.19
2016-04-21T14:02:56.531Z,959.21
2016-04-21T14:03:56.963Z,959.2
2016-04-21T14:04:56.762Z,959.21
2016-04-21T14:05:56.701Z,959.18
2016-04-21T14:06:57.032Z,959.24
2016-04-21T14:07:55.910Z,959.18
2016-04-21T14:08:56.507Z,959.18
2016-04-21T14:09:56.885Z,959.14
2016-04-21T14:10:55.887Z,959.14
2016-04-21T14:11:56.671Z,959.08
2016-04-21T14:12:57.033Z,959.09
2016-04-21T14:13:55.927Z,959.07
2016-04-21T14:14:56.648Z,959.09
2016-04-21T14:15:56.556Z,959.05
2016-04-21T14:16:55.684Z,959.03
2016-04-21T14:17:56.422Z,959.02
2016-04-21T14:18:55.659Z,959.02
2016-04-21T14:19:56.396Z,959.03
2016-04-21T14:20:56.384Z,959.06
2016-04-21T14:21:55.839Z,959.02
2016-04-21T14:22:56.492Z,958.99
2016-04-21T14:23:55.635Z,959
2016-04-21T14:24:55.654Z,958.99
2016-04-21T14:25:55.640Z,958.94
2016-04-21T14:26:55.613Z,958.92
2016-04-21T14:27:56.365Z,958.9
2016-04-21T14:28:55.587Z,958.91
2016-04-21T14:29:55.543Z,958.92
2016-04-21T14:30:55.623Z,958.87
2016-04-21T14:31:55.860Z,958.89
2016-04-21T14:32:55.582Z,958.85
2016-04-21T14:33:55.615Z,958.8
2016-04-21T14:34:55.618Z,958.84
2016-04-21T14:35:55.573Z,958.79
2016-04-21T14:36:55.592Z,958.77
2016-04-21T14:37:56.626Z,958.76
2016-04-21T14:38:55.598Z,958.74
2016-04-21T14:39:55.475Z,958.75
2016-04-21T14:40:55.571Z,958.7
2016-04-21T14:41:56.778Z,958.7
2016-04-21T14:42:55.561Z,958.74
2016-04-21T14:43:55.549Z,958.71
2016-04-21T14:44:55.567Z,958.72
2016-04-21T14:45:55.538Z,958.7
2016-04-21T14:46:55.541Z,958.69
2016-04-21T14:47:56.310Z,958.65
2016-04-21T14:48:55.469Z,958.67
2016-04-21T14:49:55.471Z,958.66
2016-04-21T14:50:55.536Z,958.66
2016-04-21T14:51:55.539Z,958.63
2016-04-21T14:52:55.541Z,958.6
2016-04-21T14:53:55.543Z,958.61
2016-04-21T14:54:56.374Z,958.6
2016-04-21T14:55:55.534Z,958.6
2016-04-21T14:56:56.349Z,958.57
2016-04-21T14:57:56.696Z,958.53
2016-04-21T14:58:56.793Z,958.53
2016-04-21T14:59:56.232Z,958.52
2016-04-21T15:00:56.219Z,958.54
2016-04-21T15:01:55.941Z,958.52
2016-04-21T15:02:55.443Z,958.49
2016-04-21T15:03:55.493Z,958.5
2016-04-21T15:04:55.481Z,958.45
2016-04-21T15:05:56.295Z,958.47
2016-04-21T15:06:56.548Z,958.44
2016-04-21T15:07:56.222Z,958.46
2016-04-21T15:08:56.162Z,958.43
2016-04-21T15:09:56.353Z,958.39
2016-04-21T15:10:56.637Z,958.42
2016-04-21T15:11:56.264Z,958.46
2016-04-21T15:12:56.705Z,958.39
2016-04-21T15:13:56.161Z,958.36
2016-04-21T15:14:57.491Z,958.33
2016-04-21T15:15:55.603Z,958.35
2016-04-21T15:16:56.433Z,958.33
2016-04-21T15:17:56.280Z,958.3
2016-04-21T15:18:56.471Z,958.34
2016-04-21T15:19:56.208Z,958.31
2016-04-21T15:20:56.273Z,958.27
2016-04-21T15:21:56.260Z,958.27
2016-04-21T15:22:56.419Z,958.28
2016-04-21T15:23:55.406Z,958.28
2016-04-21T15:24:55.346Z,958.22
2016-04-21T15:25:56.521Z,958.23
2016-04-21T15:26:55.415Z,958.19
2016-04-21T15:27:56.307Z,958.17
2016-04-21T15:28:56.529Z,958.17
2016-04-21T15:29:56.126Z,958.15
2016-04-21T15:30:55.566Z,958.14
2016-04-21T15:31:55.381Z,958.09
2016-04-21T15:32:56.242Z,958.12
2016-04-21T15:33:55.574Z,958.15
2016-04-21T15:34:56.107Z,958.14
2016-04-21T15:35:56.126Z,958.13
2016-04-21T15:36:55.348Z,958.11
2016-04-21T15:37:55.647Z,958.07
2016-04-21T15:38:56.165Z,958.09
2016-04-21T15:39:55.340Z,958.08
2016-04-21T15:40:55.531Z,958.09
2016-04-21T15:41:56.236Z,958.08
2016-04-21T15:42:55.567Z,958.03
2016-04-21T15:43:56.131Z,958.02
2016-04-21T15:44:56.431Z,958.03
2016-04-21T15:45:55.997Z,958
2016-04-21T15:46:56.046Z,957.98
2016-04-21T15:47:56.221Z,957.98
2016-04-21T15:48:55.552Z,957.94
2016-04-21T15:49:56.163Z,957.93
2016-04-21T15:50:56.369Z,957.94
2016-04-21T15:51:56.122Z,957.89
2016-04-21T15:52:56.110Z,957.91
2016-04-21T15:53:55.268Z,957.91
2016-04-21T15:54:56.333Z,957.88
2016-04-21T15:55:56.352Z,957.83
2016-04-21T15:56:56.464Z,957.83
2016-04-21T15:57:55.498Z,957.86
2016-04-21T15:58:55.282Z,957.79
2016-04-21T15:59:55.988Z,957.78
2016-04-21T16:00:55.302Z,957.76
2016-04-21T16:01:56.415Z,957.7
2016-04-21T16:02:55.245Z,957.69
2016-04-21T16:03:55.186Z,957.67
2016-04-21T16:04:55.985Z,957.68
2016-04-21T16:05:55.223Z,957.7
2016-04-21T16:06:55.459Z,957.65
2016-04-21T16:07:56.009Z,957.66
2016-04-21T16:08:55.948Z,957.68
2016-04-21T16:09:55.451Z,957.63
2016-04-21T16:10:55.970Z,957.6
2016-04-21T16:11:56.128Z,957.6
2016-04-21T16:12:56.289Z,957.59
2016-04-21T16:13:56.041Z,957.59
2016-04-21T16:14:55.200Z,957.6
2016-04-21T16:15:55.186Z,957.57
2016-04-21T16:16:55.205Z,957.56
2016-04-21T16:17:55.989Z,957.53
2016-04-21T16:18:55.164Z,957.55
2016-04-21T16:19:56.120Z,957.52
2016-04-21T16:20:56.138Z,957.51
2016-04-21T16:21:56.108Z,957.47
2016-04-21T16:22:55.377Z,957.47
2016-04-21T16:23:55.177Z,957.44
2016-04-21T16:24:55.898Z,957.45
2016-04-21T16:25:56.182Z,957.44
2016-04-21T16:26:56.232Z,957.44
2016-04-21T16:27:56.110Z,957.46
2016-04-21T16:28:55.096Z,957.41
2016-04-21T16:29:55.115Z,957.42
2016-04-21T16:30:55.149Z,957.41
2016-04-21T16:31:55.340Z,957.37
2016-04-21T16:32:56.029Z,957.38
2016-04-21T16:33:56.016Z,957.35
2016-04-21T16:34:57.582Z,957.34
2016-04-21T16:35:55.116Z,957.33
2016-04-21T16:36:55.103Z,957.37
2016-04-21T16:37:55.090Z,957.32
2016-04-21T16:38:55.873Z,957.31
2016-04-21T16:39:55.032Z,957.27
2016-04-21T16:40:55.081Z,957.3
2016-04-21T16:41:56.117Z,957.27
2016-04-21T16:42:55.853Z,957.26
2016-04-21T16:43:55.090Z,957.28
2016-04-21T16:44:55.059Z,957.22
2016-04-21T16:45:55.298Z,957.24
2016-04-21T16:46:55.676Z,957.25
2016-04-21T16:47:56.070Z,957.2
2016-04-21T16:48:55.306Z,957.24
2016-04-21T16:49:55.088Z,957.23
2016-04-21T16:50:55.891Z,957.18
2016-04-21T16:51:55.062Z,957.14
2016-04-21T16:52:55.222Z,957.16
2016-04-21T16:53:55.067Z,957.12
2016-04-21T16:54:55.697Z,957.11
2016-04-21T16:55:55.026Z,957.09
2016-04-21T16:56:54.982Z,957.11
2016-04-21T16:57:55.862Z,957.08
2016-04-21T16:58:54.940Z,957.11
2016-04-21T16:59:55.758Z,957.07
2016-04-21T17:00:55.024Z,957.11
2016-04-21T17:01:54.996Z,957.07
2016-04-21T17:02:56.001Z,957.1
2016-04-21T17:03:55.847Z,957.09
2016-04-21T17:04:55.191Z,957.08
2016-04-21T17:05:55.868Z,957.06
2016-04-21T17:06:55.696Z,957.05
2016-04-21T17:07:54.980Z,957.06
2016-04-21T17:08:54.968Z,957.04
2016-04-21T17:09:54.892Z,957.01
2016-04-21T17:10:55.160Z,956.96
2016-04-21T17:11:55.835Z,956.97
2016-04-21T17:12:54.962Z,956.96
2016-04-21T17:13:54.933Z,956.95
2016-04-21T17:14:55.764Z,956.94
2016-04-21T17:15:54.939Z,956.88
2016-04-21T17:16:54.973Z,956.87
2016-04-21T17:17:55.694Z,956.81
2016-04-21T17:18:54.931Z,956.83
2016-04-21T17:19:55.809Z,956.8
2016-04-21T17:20:54.844Z,956.81
2016-04-21T17:21:55.658Z,956.81
2016-04-21T17:22:55.661Z,956.74
2016-04-21T17:23:54.836Z,956.74
2016-04-21T17:24:54.870Z,956.73
2016-04-21T17:25:55.091Z,956.69
2016-04-21T17:26:55.703Z,956.68
2016-04-21T17:27:54.894Z,956.66
2016-04-21T17:28:55.786Z,956.68
2016-04-21T17:29:55.618Z,956.68
2016-04-21T17:30:54.854Z,956.66
2016-04-21T17:31:54.873Z,956.67
2016-04-21T17:32:54.829Z,956.63
2016-04-21T17:33:54.816Z,956.65
2016-04-21T17:34:54.787Z,956.64
2016-04-21T17:35:54.852Z,956.69
2016-04-21T17:36:54.808Z,956.64
2016-04-21T17:37:54.764Z,956.63
2016-04-21T17:38:54.782Z,956.62
2016-04-21T17:39:54.785Z,956.63
2016-04-21T17:40:54.788Z,956.63
2016-04-21T17:41:54.806Z,956.61
2016-04-21T17:42:54.809Z,956.62
2016-04-21T17:43:54.734Z,956.62
2016-04-21T17:44:55.689Z,956.61
2016-04-21T17:46:08.006Z,956.62
2016-04-21T17:46:54.772Z,956.61
2016-04-21T17:47:55.510Z,956.61
2016-04-21T17:48:55.575Z,956.57
2016-04-21T17:49:54.718Z,956.53
2016-04-21T17:50:55.564Z,956.54
2016-04-21T17:51:55.848Z,956.56
2016-04-21T17:52:55.492Z,956.57
2016-04-21T17:53:55.525Z,956.57
2016-04-21T17:54:55.763Z,956.57
2016-04-21T17:55:55.859Z,956.52
2016-04-21T17:56:55.424Z,956.53
2016-04-21T17:57:54.693Z,956.48
2016-04-21T17:58:54.914Z,956.53
2016-04-21T17:59:55.619Z,956.53
2016-04-21T18:00:55.498Z,956.55
2016-04-21T18:01:55.844Z,956.53
2016-04-21T18:02:55.346Z,956.53
2016-04-21T18:03:55.522Z,956.53
2016-04-21T18:04:55.651Z,956.55
2016-04-21T18:05:55.701Z,956.56
2016-04-21T18:06:54.688Z,956.53
2016-04-21T18:07:54.643Z,956.56
2016-04-21T18:08:55.396Z,956.6
2016-04-21T18:09:55.415Z,956.61
2016-04-21T18:10:55.448Z,956.6
2016-04-21T18:11:55.420Z,956.58
2016-04-21T18:12:55.423Z,956.62
2016-04-21T18:13:54.598Z,956.63
2016-04-21T18:14:55.678Z,956.63
2016-04-21T18:15:55.555Z,956.59
2016-04-21T18:16:55.340Z,956.6
2016-04-21T18:17:55.409Z,956.63
2016-04-21T18:18:54.802Z,956.61
2016-04-21T18:19:54.585Z,956.59
2016-04-21T18:20:55.870Z,956.62
2016-04-21T18:21:56.202Z,956.6
2016-04-21T18:22:54.766Z,956.61
2016-04-21T18:23:55.317Z,956.63
2016-04-21T18:24:55.319Z,956.62
2016-04-21T18:25:55.931Z,956.64
2016-04-21T18:26:54.512Z,956.58
2016-04-21T18:27:55.437Z,956.58
2016-04-21T18:28:54.689Z,956.64
2016-04-21T18:29:55.176Z,956.61
2016-04-21T18:30:54.491Z,956.62
2016-04-21T18:31:54.479Z,956.62
2016-04-21T18:32:55.278Z,956.61
2016-04-21T18:33:55.187Z,956.61
2016-04-21T18:34:54.456Z,956.61
2016-04-21T18:35:54.458Z,956.57
2016-04-21T18:36:54.679Z,956.59
2016-04-21T18:37:54.417Z,956.58
2016-04-21T18:38:55.217Z,956.61
2016-04-21T18:39:54.406Z,956.57
2016-04-21T18:40:54.425Z,956.61
2016-04-21T18:41:55.850Z,956.64
2016-04-21T18:42:54.617Z,956.64
2016-04-21T18:43:55.120Z,956.65
2016-04-21T18:44:55.498Z,956.64
2016-04-21T18:45:54.361Z,956.6
2016-04-21T18:46:55.722Z,956.63
2016-04-21T18:47:54.366Z,956.66
2016-04-21T18:48:54.603Z,956.68
2016-04-21T18:49:55.230Z,956.69
2016-04-21T18:50:55.108Z,956.68
2016-04-21T18:51:54.705Z,956.66
2016-04-21T18:52:54.317Z,956.69
2016-04-21T18:53:54.319Z,956.65
2016-04-21T18:54:54.321Z,956.69
2016-04-21T18:55:55.231Z,956.7
2016-04-21T18:56:54.281Z,956.69
2016-04-21T18:57:54.985Z,956.66
2016-04-21T18:58:55.254Z,956.72
2016-04-21T18:59:55.038Z,956.72
2016-04-21T19:00:55.729Z,956.75
2016-04-21T19:01:55.169Z,956.73
2016-04-21T19:02:54.921Z,956.75
2016-04-21T19:03:55.070Z,956.72
2016-04-21T19:04:55.041Z,956.71
2016-04-21T19:05:54.965Z,956.69
2016-04-21T19:06:55.000Z,956.68
2016-04-21T19:07:55.361Z,956.68
2016-04-21T19:08:55.348Z,956.69
2016-04-21T19:09:55.351Z,956.68
2016-04-21T19:10:55.573Z,956.7
2016-04-21T19:11:55.325Z,956.66
2016-04-21T19:12:54.891Z,956.68
2016-04-21T19:13:55.081Z,956.68
2016-04-21T19:14:54.912Z,956.67
2016-04-21T19:15:55.149Z,956.72
2016-04-21T19:16:54.126Z,956.7
2016-04-21T19:17:55.278Z,956.7
2016-04-21T19:18:55.663Z,956.68
2016-04-21T19:19:55.220Z,956.7
2016-04-21T19:20:55.200Z,956.65
2016-04-21T19:21:55.270Z,956.69
2016-04-21T19:22:54.995Z,956.69
2016-04-21T19:23:55.183Z,956.7
2016-04-21T19:24:54.184Z,956.71
2016-04-21T19:25:55.748Z,956.72
2016-04-21T19:26:55.061Z,956.73
2016-04-21T19:27:54.240Z,956.72
2016-04-21T19:28:54.248Z,956.71
2016-04-21T19:29:54.224Z,956.69
2016-04-21T19:30:54.231Z,956.73
2016-04-21T19:31:54.239Z,956.74
2016-04-21T19:32:55.478Z,956.72
2016-04-21T19:33:55.014Z,956.73
2016-04-21T19:34:54.206Z,956.75
2016-04-21T19:35:56.070Z,956.71
2016-04-21T19:36:55.481Z,956.72
2016-04-21T19:37:55.030Z,956.69
2016-04-21T19:38:55.283Z,956.68
2016-04-21T19:39:55.193Z,956.62
2016-04-21T19:40:54.134Z,956.62
2016-04-21T19:41:55.230Z,956.6
2016-04-21T19:42:54.140Z,956.59
2016-04-21T19:43:54.127Z,956.59
2016-04-21T19:44:54.849Z,956.61
2016-04-21T19:45:54.086Z,956.56
2016-04-21T19:46:54.871Z,956.54
2016-04-21T19:47:55.420Z,956.57
2016-04-21T19:48:54.891Z,956.55
2016-04-21T19:49:55.144Z,956.53
2016-04-21T19:50:54.819Z,956.56
2016-04-21T19:51:55.010Z,956.53
2016-04-21T19:52:54.840Z,956.55
2016-04-21T19:53:55.499Z,956.52
2016-04-21T19:54:54.908Z,956.55
2016-04-21T19:55:54.207Z,956.56
2016-04-21T19:56:53.975Z,956.59
2016-04-21T19:57:54.212Z,956.5
2016-04-21T19:58:55.825Z,956.57
2016-04-21T19:59:54.781Z,956.56
2016-04-21T20:00:56.079Z,956.55
2016-04-21T20:02:16.507Z,956.52
2016-04-21T20:03:55.213Z,956.46
2016-04-21T20:05:12.875Z,956.5
2016-04-21T20:06:33.486Z,956.53
2016-04-21T20:07:52.990Z,956.5
2016-04-21T20:09:12.823Z,956.47
2016-04-21T20:10:31.748Z,956.46
2016-04-21T20:11:43.048Z,956.48
2016-04-21T20:13:04.877Z,956.43
2016-04-21T20:13:55.037Z,956.44
2016-04-21T20:15:18.495Z,956.42
2016-04-21T20:16:38.686Z,956.45
2016-04-21T20:18:05.844Z,956.4
2016-04-21T20:19:25.803Z,956.4
2016-04-21T20:20:45.743Z,956.39
2016-04-21T20:22:06.247Z,956.39
2016-04-21T20:23:15.783Z,956.39
2016-04-21T20:24:36.427Z,956.37
2016-04-21T20:25:54.272Z,956.37
2016-04-21T20:27:15.793Z,956.35
2016-04-21T20:28:34.999Z,956.33
2016-04-21T20:29:55.018Z,956.32
2016-04-21T20:30:57.082Z,956.3
2016-04-21T20:31:58.085Z,956.33
2016-04-21T20:32:58.073Z,956.27
2016-04-21T20:33:58.029Z,956.32
2016-04-21T20:34:58.046Z,956.28
2016-04-21T20:35:58.048Z,956.25
2016-04-21T20:36:58.192Z,956.22
2016-04-21T20:37:57.117Z,956.31
2016-04-21T20:38:57.072Z,956.29
2016-04-21T20:39:57.091Z,956.28
2016-04-21T20:40:57.781Z,956.28
2016-04-21T20:41:57.034Z,956.25
2016-04-21T20:42:57.036Z,956.24
2016-04-21T20:43:57.008Z,956.26
2016-04-21T20:44:56.980Z,956.22
2016-04-21T20:45:57.014Z,956.25
2016-04-21T20:46:56.954Z,956.26
2016-04-21T20:47:56.910Z,956.25
2016-04-21T20:48:56.943Z,956.29
2016-04-21T20:50:57.871Z,956.28
2016-04-21T20:51:56.936Z,956.26
2016-04-21T20:52:56.876Z,956.24
2016-04-21T20:53:56.895Z,956.25
2016-04-21T20:54:57.116Z,956.29
2016-04-21T20:55:56.885Z,956.25
2016-04-21T20:56:57.841Z,956.26
2016-04-21T20:57:58.093Z,956.25
2016-04-21T20:58:57.048Z,956.29
2016-04-21T20:59:57.052Z,956.27
2016-04-21T21:00:57.960Z,956.26
2016-04-21T21:01:57.556Z,956.27
2016-04-21T21:02:56.825Z,956.28
2016-04-21T21:03:56.765Z,956.26
2016-04-21T21:04:57.424Z,956.32
2016-04-21T21:05:57.817Z,956.29
2016-04-21T21:06:57.554Z,956.25
2016-04-21T21:07:56.698Z,956.29
2016-04-21T21:08:56.919Z,956.25
2016-04-21T21:09:56.703Z,956.28
2016-04-21T21:10:57.847Z,956.25
2016-04-21T21:11:57.771Z,956.26
2016-04-21T21:12:56.852Z,956.26
2016-04-21T21:13:57.495Z,956.27
2016-04-21T21:14:57.404Z,956.27
2016-04-21T21:15:57.453Z,956.25
2016-04-21T21:16:56.613Z,956.26
2016-04-21T21:17:57.475Z,956.28
2016-04-21T21:18:57.337Z,956.28
2016-04-21T21:19:57.839Z,956.27
2016-04-21T21:20:57.405Z,956.26
2016-04-21T21:21:57.658Z,956.29
2016-04-21T21:22:57.333Z,956.27
2016-04-21T21:23:57.522Z,956.27
2016-04-21T21:24:57.588Z,956.3
2016-04-21T21:25:56.777Z,956.28
2016-04-21T21:26:57.561Z,956.27
2016-04-21T21:27:57.282Z,956.31
2016-04-21T21:28:56.504Z,956.27
2016-04-21T21:29:57.601Z,956.28
2016-04-21T21:30:57.479Z,956.27
2016-04-21T21:31:58.043Z,956.31
2016-04-21T21:32:57.562Z,956.34
2016-04-21T21:33:57.377Z,956.34
2016-04-21T21:34:57.974Z,956.34
2016-04-21T21:35:56.382Z,956.34
2016-04-21T21:36:57.120Z,956.32
2016-04-21T21:37:56.404Z,956.31
2016-04-21T21:38:56.390Z,956.28
2016-04-21T21:39:56.331Z,956.29
2016-04-21T21:40:56.349Z,956.28
2016-04-21T21:41:56.336Z,956.24
2016-04-21T21:42:56.948Z,956.26
2016-04-21T21:43:56.325Z,956.22
2016-04-21T21:44:56.281Z,956.27
2016-04-21T21:45:56.269Z,956.24
2016-04-21T21:46:57.287Z,956.23
2016-04-21T21:47:58.680Z,956.25
2016-04-21T21:49:29.795Z,956.26
2016-04-21T21:51:13.050Z,956.25
2016-04-21T21:52:50.803Z,956.25
2016-04-21T21:54:39.184Z,956.2
2016-04-21T21:56:11.718Z,956.22
2016-04-21T21:57:50.302Z,956.19
2016-04-21T21:59:28.540Z,956.2
2016-04-21T22:01:05.309Z,956.15
2016-04-21T22:02:42.721Z,956.11
2016-04-21T22:04:21.820Z,956.09
2016-04-21T22:05:56.260Z,956.12
2016-04-21T22:07:34.671Z,956.19
2016-04-21T22:10:25.462Z,956.17
2016-04-21T22:11:59.167Z,956.15
2016-04-21T22:13:42.423Z,956.17
2016-04-21T22:15:27.114Z,956.24
2016-04-21T22:17:05.274Z,956.17
2016-04-21T22:18:10.995Z,956.19
2016-04-21T22:19:11.248Z,956.15
2016-04-21T22:20:11.470Z,956.15
2016-04-21T22:21:11.238Z,956.14
2016-04-21T22:22:11.208Z,956.18
2016-04-21T22:23:11.211Z,956.18
2016-04-21T22:24:11.964Z,956.18
2016-04-21T22:25:11.171Z,956.14
2016-04-21T22:26:10.924Z,956.16
2016-04-21T22:27:11.988Z,956.16
2016-04-21T22:28:11.147Z,956.15
2016-04-21T22:29:10.932Z,956.16
2016-04-21T22:30:12.121Z,956.12
2016-04-21T22:31:10.874Z,956.14
2016-04-21T22:32:10.877Z,956.18
2016-04-21T22:33:10.864Z,956.11
2016-04-21T22:34:10.866Z,956.12
2016-04-21T22:35:11.573Z,956.13
2016-04-21T22:36:11.809Z,956.12
2016-04-21T22:37:10.843Z,956.07
2016-04-21T22:38:10.768Z,956.14
2016-04-21T22:39:10.755Z,956.1
2016-04-21T22:40:11.962Z,956.12
2016-04-21T22:42:10.795Z,956.12
2016-04-21T22:43:10.734Z,956.11
2016-04-21T22:44:10.737Z,956.08
2016-04-21T22:45:10.725Z,956.11
2016-04-21T22:46:10.695Z,956.07
2016-04-21T22:47:11.683Z,956.07
2016-04-21T22:48:10.686Z,956.07
2016-04-21T22:49:11.486Z,956.08
2016-04-21T22:50:10.925Z,956.09
2016-04-21T22:51:10.662Z,956.07
2016-04-21T22:52:10.618Z,956.05
2016-04-21T22:53:10.621Z,956.05
2016-04-21T22:54:11.686Z,956.03
2016-04-21T22:55:11.469Z,956.01
2016-04-21T22:56:10.582Z,956.04
2016-04-21T22:57:11.428Z,956.03
2016-04-21T22:58:10.555Z,956.01
2016-04-21T22:59:11.527Z,956.04
2016-04-21T23:00:10.546Z,956
2016-04-21T23:01:10.517Z,955.98
2016-04-21T23:02:11.457Z,955.97
2016-04-21T23:03:10.507Z,955.9
2016-04-21T23:04:10.713Z,955.97
2016-04-21T23:05:11.168Z,955.93
2016-04-21T23:06:11.249Z,955.93
2016-04-21T23:07:10.643Z,955.93
2016-04-21T23:08:10.457Z,955.89
2016-04-21T23:09:10.617Z,955.92
2016-04-21T23:10:11.167Z,955.91
2016-04-21T23:11:10.590Z,955.89
2016-04-21T23:12:11.375Z,955.89
2016-04-21T23:13:10.565Z,955.91
2016-04-21T23:14:11.145Z,955.91
2016-04-21T23:15:11.555Z,955.9
2016-04-21T23:16:10.543Z,955.87
2016-04-21T23:17:11.325Z,955.87
2016-04-21T23:18:10.328Z,955.83
2016-04-21T23:19:11.644Z,955.86
2016-04-21T23:20:10.975Z,955.88
2016-04-21T23:21:10.212Z,955.86
2016-04-21T23:22:11.184Z,955.84
2016-04-21T23:23:10.467Z,955.84
2016-04-21T23:24:11.267Z,955.86
2016-04-21T23:25:10.222Z,955.82
2016-04-21T23:26:10.413Z,955.81
2016-04-21T23:27:10.180Z,955.78
2016-04-21T23:29:10.124Z,955.79
2016-04-21T23:30:10.127Z,955.83
2016-04-21T23:31:10.098Z,955.8
2016-04-21T23:32:11.366Z,955.81
2016-04-21T23:33:10.385Z,955.81
2016-04-21T23:34:10.324Z,955.76
2016-04-21T23:35:10.921Z,955.79
2016-04-21T23:36:10.065Z,955.78
2016-04-21T23:37:10.301Z,955.78
2016-04-21T23:38:10.085Z,955.73
2016-04-21T23:39:10.026Z,955.68
2016-04-21T23:40:11.185Z,955.74
2016-04-21T23:41:10.781Z,955.72
2016-04-21T23:42:10.956Z,955.73
2016-04-21T23:43:11.021Z,955.77
2016-04-21T23:44:09.961Z,955.77
2016-04-21T23:45:11.011Z,955.76
2016-04-21T23:46:10.764Z,955.74
2016-04-21T23:47:09.938Z,955.72
2016-04-21T23:48:10.690Z,955.74
2016-04-21T23:49:10.662Z,955.73
2016-04-21T23:50:10.837Z,955.77
2016-04-21T23:51:09.887Z,955.78
2016-04-21T23:52:09.873Z,955.8
2016-04-21T23:53:10.083Z,955.79
2016-04-21T23:54:11.058Z,955.74
2016-04-21T23:55:09.733Z,955.76
2016-04-21T23:56:10.478Z,955.79
2016-04-21T23:57:10.262Z,955.76
2016-04-21T23:58:09.452Z,955.78
2016-04-21T23:59:09.689Z,955.74
